createdAt,value
2023-03-06T00:00:28.418Z,9.27
2023-03-06T00:02:55.269Z,9.77
2023-03-06T00:05:22.132Z,9.95
2023-03-06T00:07:48.689Z,9.65
2023-03-06T00:10:17.804Z,10.48
2023-03-06T00:12:44.555Z,9.77
2023-03-06T00:15:13.593Z,8.80
2023-03-06T00:17:40.707Z,8.88
2023-03-06T00:20:09.396Z,9.38
2023-03-06T00:22:35.940Z,9.85
2023-03-06T00:25:02.492Z,9.50
2023-03-06T00:27:30.678Z,10.57
2023-03-06T00:29:57.944Z,9.20
2023-03-06T00:32:27.414Z,9.23
2023-03-06T00:34:55.638Z,9.70
2023-03-06T00:37:23.575Z,7.95
2023-03-06T00:39:50.562Z,8.35
2023-03-06T00:42:17.937Z,7.78
2023-03-06T00:44:45.044Z,6.60
2023-03-06T00:47:12.114Z,5.53
2023-03-06T00:49:40.073Z,5.93
2023-03-06T00:52:06.956Z,5.10
2023-03-06T00:54:33.503Z,5.00
2023-03-06T00:57:00.128Z,5.22
2023-03-06T00:59:26.730Z,4.70
2023-03-06T01:01:53.503Z,4.57
2023-03-06T01:04:20.150Z,4.45
2023-03-06T01:06:49.713Z,4.00
2023-03-06T01:09:16.288Z,3.90
2023-03-06T01:11:43.056Z,3.92
2023-03-06T01:14:11.052Z,4.60
2023-03-06T01:16:37.699Z,4.95
2023-03-06T01:19:04.378Z,4.40
2023-03-06T01:21:31.111Z,4.55
2023-03-06T01:23:59.891Z,4.50
2023-03-06T01:26:26.769Z,4.93
2023-03-06T01:28:53.340Z,4.82
2023-03-06T01:31:20.060Z,4.05
2023-03-06T01:33:46.887Z,4.43
2023-03-06T01:36:14.087Z,4.60
2023-03-06T01:38:40.665Z,4.68
2023-03-06T01:41:09.406Z,5.35
2023-03-06T01:43:38.803Z,5.03
2023-03-06T01:46:29.391Z,5.10
2023-03-06T01:48:59.214Z,4.40
2023-03-06T01:51:30.321Z,4.82
2023-03-06T01:53:59.708Z,4.43
2023-03-06T01:56:28.648Z,5.03
2023-03-06T01:58:56.041Z,4.85
2023-03-06T02:01:23.351Z,4.57
2023-03-06T02:03:51.059Z,4.28
2023-03-06T02:06:18.144Z,4.03
2023-03-06T02:08:45.122Z,4.07
2023-03-06T02:11:14.314Z,4.22
2023-03-06T02:13:43.332Z,4.38
2023-03-06T02:16:10.960Z,4.70
2023-03-06T02:18:39.862Z,4.55
2023-03-06T02:21:08.547Z,4.85
2023-03-06T02:23:45.696Z,4.75
2023-03-06T02:26:14.860Z,4.60
2023-03-06T02:28:41.798Z,4.75
2023-03-06T02:31:16.955Z,4.60
2023-03-06T02:33:43.666Z,4.75
2023-03-06T02:36:15.711Z,5.63
2023-03-06T02:38:47.511Z,4.95
2023-03-06T02:41:15.689Z,5.40
2023-03-06T02:43:43.866Z,4.80
2023-03-06T02:46:10.642Z,5.30
2023-03-06T02:48:37.307Z,5.13
2023-03-06T02:51:03.952Z,4.45
2023-03-06T02:53:32.144Z,4.70
2023-03-06T02:55:59.866Z,4.50
2023-03-06T02:58:27.936Z,5.32
2023-03-06T03:00:54.661Z,5.05
2023-03-06T03:03:21.369Z,4.63
2023-03-06T03:05:48.041Z,5.25
2023-03-06T03:08:22.647Z,4.93
2023-03-06T03:10:52.645Z,4.63
2023-03-06T03:13:19.861Z,5.22
2023-03-06T03:15:59.036Z,5.10
2023-03-06T03:18:25.769Z,5.32
2023-03-06T03:20:53.480Z,5.68
2023-03-06T03:23:20.225Z,5.40
2023-03-06T03:25:46.767Z,5.63
2023-03-06T03:28:13.695Z,5.65
2023-03-06T03:30:41.328Z,5.65
2023-03-06T03:33:10.865Z,5.63
2023-03-06T03:35:38.461Z,5.93
2023-03-06T03:38:05.151Z,5.88
2023-03-06T03:40:31.743Z,5.78
2023-03-06T03:42:59.240Z,6.00
2023-03-06T03:45:25.891Z,5.93
2023-03-06T03:47:52.568Z,7.35
2023-03-06T03:50:22.611Z,6.20
2023-03-06T03:52:49.764Z,6.22
2023-03-06T03:55:16.599Z,6.53
2023-03-06T03:57:43.211Z,6.40
2023-03-06T04:00:11.867Z,8.43
2023-03-06T04:02:41.648Z,8.07
2023-03-06T04:05:21.388Z,7.15
2023-03-06T04:07:48.651Z,6.82
2023-03-06T04:10:16.199Z,6.28
2023-03-06T04:12:43.716Z,6.32
2023-03-06T04:15:11.526Z,6.78
2023-03-06T04:17:38.895Z,7.38
2023-03-06T04:20:09.943Z,6.85
2023-03-06T04:22:38.131Z,7.60
2023-03-06T04:25:05.479Z,7.72
2023-03-06T04:27:32.159Z,7.50
2023-03-06T04:29:58.990Z,7.45
2023-03-06T04:32:26.073Z,7.28
2023-03-06T04:34:52.718Z,8.05
2023-03-06T04:37:21.694Z,7.63
2023-03-06T04:39:50.094Z,8.00
2023-03-06T04:42:16.961Z,8.82
2023-03-06T04:44:43.515Z,7.68
2023-03-06T04:47:10.443Z,7.85
2023-03-06T04:49:37.144Z,7.18
2023-03-06T04:52:04.220Z,8.05
2023-03-06T04:54:31.175Z,7.45
2023-03-06T04:57:00.338Z,9.00
2023-03-06T04:59:27.237Z,8.88
2023-03-06T05:01:54.248Z,9.02
2023-03-06T05:04:20.901Z,8.63
2023-03-06T05:06:47.474Z,8.10
2023-03-06T05:09:14.010Z,8.82
2023-03-06T05:11:40.861Z,8.90
2023-03-06T05:14:08.870Z,9.43
2023-03-06T05:16:35.538Z,9.25
2023-03-06T05:19:02.093Z,9.40
2023-03-06T05:21:28.748Z,10.10
2023-03-06T05:23:55.300Z,10.82
2023-03-06T05:26:22.025Z,10.95
2023-03-06T05:28:48.548Z,10.05
2023-03-06T05:31:16.883Z,11.25
2023-03-06T05:33:43.550Z,10.85
2023-03-06T05:36:11.187Z,10.30
2023-03-06T05:38:38.016Z,10.85
2023-03-06T05:41:05.042Z,11.40
2023-03-06T05:43:31.580Z,11.30
2023-03-06T05:46:02.173Z,10.38
2023-03-06T05:48:30.283Z,11.30
2023-03-06T05:50:57.109Z,11.20
2023-03-06T05:53:23.685Z,11.55
2023-03-06T05:55:56.446Z,11.95
2023-03-06T05:58:23.203Z,10.95
2023-03-06T06:00:49.700Z,10.95
2023-03-06T06:03:16.394Z,12.13
2023-03-06T06:05:44.344Z,10.80
2023-03-06T06:08:10.945Z,12.00
2023-03-06T06:10:38.184Z,12.27
2023-03-06T06:13:04.840Z,11.90
2023-03-06T06:15:31.484Z,11.95
2023-03-06T06:17:58.224Z,12.13
2023-03-06T06:20:25.355Z,11.70
2023-03-06T06:22:53.380Z,12.57
2023-03-06T06:25:19.997Z,12.88
2023-03-06T06:27:46.659Z,12.32
2023-03-06T06:30:13.515Z,12.65
2023-03-06T06:32:40.253Z,11.73
2023-03-06T06:35:07.394Z,13.85
2023-03-06T06:37:34.014Z,13.07
2023-03-06T06:40:01.940Z,12.32
2023-03-06T06:42:36.961Z,12.70
2023-03-06T06:45:06.815Z,13.10
2023-03-06T06:47:33.348Z,13.68
2023-03-06T06:49:59.998Z,12.23
2023-03-06T06:52:26.655Z,13.38
2023-03-06T06:54:53.505Z,14.27
2023-03-06T06:57:21.389Z,13.20
2023-03-06T06:59:48.023Z,14.68
2023-03-06T07:02:15.448Z,14.30
2023-03-06T07:05:00.426Z,13.18
2023-03-06T07:07:29.088Z,13.40
2023-03-06T07:09:55.827Z,14.57
2023-03-06T07:12:23.803Z,14.75
2023-03-06T07:14:50.429Z,14.30
2023-03-06T07:17:17.058Z,15.38
2023-03-06T07:19:43.568Z,14.18
2023-03-06T07:22:10.362Z,16.05
2023-03-06T07:24:36.916Z,16.25
2023-03-06T07:27:03.640Z,15.75
2023-03-06T07:29:31.559Z,14.93
2023-03-06T07:31:58.196Z,15.38
2023-03-06T07:34:24.801Z,15.10
2023-03-06T07:36:51.431Z,14.35
2023-03-06T07:39:18.339Z,16.17
2023-03-06T07:41:44.972Z,15.43
2023-03-06T07:44:11.589Z,14.23
2023-03-06T07:46:39.592Z,14.57
2023-03-06T07:49:06.118Z,16.20
2023-03-06T07:51:32.854Z,15.82
2023-03-06T07:53:59.408Z,14.57
2023-03-06T07:56:26.085Z,15.02
2023-03-06T07:58:52.907Z,14.25
2023-03-06T08:01:21.498Z,14.60
2023-03-06T08:03:49.707Z,16.05
2023-03-06T08:06:18.499Z,15.38
2023-03-06T08:08:46.606Z,14.63
2023-03-06T08:11:15.187Z,14.63
2023-03-06T08:13:42.237Z,14.75
2023-03-06T08:16:09.766Z,14.93
2023-03-06T08:18:36.486Z,15.85
2023-03-06T08:21:06.656Z,14.63
2023-03-06T08:23:33.935Z,14.68
2023-03-06T08:26:02.958Z,14.90
2023-03-06T08:28:29.861Z,15.20
2023-03-06T08:30:57.700Z,14.90
2023-03-06T08:33:24.327Z,14.48
2023-03-06T08:35:52.114Z,14.48
2023-03-06T08:38:20.024Z,13.48
2023-03-06T08:40:46.813Z,13.60
2023-03-06T08:43:14.365Z,14.20
2023-03-06T08:45:41.021Z,14.10
2023-03-06T08:48:07.754Z,13.20
2023-03-06T08:50:34.343Z,14.88
2023-03-06T08:53:00.854Z,12.55
2023-03-06T08:55:28.933Z,14.00
2023-03-06T08:57:55.464Z,13.57
2023-03-06T09:00:22.538Z,13.18
2023-03-06T09:02:49.120Z,12.40
2023-03-06T09:05:15.835Z,11.80
2023-03-06T09:07:42.389Z,12.73
2023-03-06T09:10:14.989Z,12.63
2023-03-06T09:12:50.095Z,13.02
2023-03-06T09:15:17.938Z,13.63
2023-03-06T09:17:44.525Z,13.38
2023-03-06T09:20:12.342Z,13.57
2023-03-06T09:22:38.946Z,13.68
2023-03-06T09:25:08.378Z,13.77
2023-03-06T09:27:35.041Z,13.95
2023-03-06T09:30:03.950Z,13.82
2023-03-06T09:32:30.527Z,14.65
2023-03-06T09:34:57.143Z,14.07
2023-03-06T09:37:23.726Z,15.05
2023-03-06T09:39:50.325Z,14.10
2023-03-06T09:42:20.123Z,12.55
2023-03-06T09:44:51.900Z,13.27
2023-03-06T09:47:48.989Z,11.93
2023-03-06T09:50:26.258Z,13.20
2023-03-06T09:53:15.411Z,11.40
2023-03-06T09:55:45.757Z,12.25
2023-03-06T09:58:16.201Z,11.95
2023-03-06T10:00:50.967Z,12.63
2023-03-06T10:03:24.576Z,11.80
2023-03-06T10:05:57.150Z,12.95
2023-03-06T10:08:28.588Z,12.48
2023-03-06T10:11:00.177Z,12.98
2023-03-06T10:13:32.537Z,13.95
2023-03-06T10:16:06.922Z,12.82
2023-03-06T10:18:35.046Z,11.88
2023-03-06T10:21:18.804Z,13.27
2023-03-06T10:23:52.828Z,12.55
2023-03-06T10:26:22.542Z,12.25
2023-03-06T10:28:56.941Z,13.43
2023-03-06T10:31:26.326Z,13.95
2023-03-06T10:33:56.879Z,12.32
2023-03-06T10:36:26.055Z,13.38
2023-03-06T10:38:53.784Z,12.60
2023-03-06T10:41:25.123Z,12.45
2023-03-06T10:44:18.023Z,12.50
2023-03-06T10:46:46.346Z,12.13
2023-03-06T10:49:29.399Z,12.80
2023-03-06T10:51:57.862Z,12.23
2023-03-06T10:54:25.258Z,13.00
2023-03-06T10:56:51.881Z,11.63
2023-03-06T10:59:20.506Z,10.55
2023-03-06T11:01:48.798Z,11.00
2023-03-06T11:04:22.842Z,10.48
2023-03-06T11:07:05.788Z,10.07
2023-03-06T11:09:33.197Z,9.25
2023-03-06T11:12:20.436Z,8.73
2023-03-06T11:14:47.076Z,7.50
2023-03-06T11:17:27.616Z,9.02
2023-03-06T11:20:15.388Z,8.73
2023-03-06T11:22:49.240Z,9.20
2023-03-06T11:25:19.036Z,8.73
2023-03-06T11:27:49.212Z,10.48
2023-03-06T11:30:20.234Z,8.98
2023-03-06T11:32:51.191Z,9.20
2023-03-06T11:35:24.525Z,8.93
2023-03-06T11:37:56.210Z,8.75
2023-03-06T11:40:28.246Z,9.45
2023-03-06T11:43:03.001Z,10.05
2023-03-06T11:45:34.392Z,9.05
2023-03-06T11:48:14.753Z,9.50
2023-03-06T11:50:43.655Z,10.00
2023-03-06T11:53:14.523Z,9.43
2023-03-06T11:55:49.912Z,9.10
2023-03-06T11:58:38.333Z,10.38
2023-03-06T12:01:09.135Z,10.25
2023-03-06T12:04:07.062Z,10.80
2023-03-06T12:06:45.678Z,10.10
2023-03-06T12:09:24.747Z,11.85
2023-03-06T12:12:03.844Z,9.68
2023-03-06T12:14:45.429Z,9.52
2023-03-06T12:17:20.979Z,10.50
2023-03-06T12:20:00.573Z,11.07
2023-03-06T12:22:41.661Z,13.68
2023-03-06T12:25:42.218Z,9.60
2023-03-06T12:28:31.005Z,12.30
2023-03-06T12:31:22.483Z,12.07
2023-03-06T12:34:01.032Z,9.32
2023-03-06T12:36:38.495Z,8.68
2023-03-06T12:39:17.033Z,9.75
2023-03-06T12:41:57.620Z,8.88
2023-03-06T12:44:49.574Z,8.98
2023-03-06T12:47:19.954Z,10.02
2023-03-06T12:49:53.120Z,9.77
2023-03-06T12:52:29.646Z,10.95
2023-03-06T12:54:58.395Z,11.50
2023-03-06T12:57:26.616Z,11.40
2023-03-06T12:59:54.206Z,10.52
2023-03-06T13:03:05.076Z,11.35
2023-03-06T13:05:42.513Z,10.13
2023-03-06T13:08:35.430Z,10.10
2023-03-06T13:11:28.019Z,10.93
2023-03-06T13:13:56.801Z,12.35
2023-03-06T13:16:28.943Z,10.68
2023-03-06T13:19:03.914Z,11.40
2023-03-06T13:22:01.899Z,10.88
2023-03-06T13:24:30.598Z,10.75
2023-03-06T13:27:03.421Z,11.13
2023-03-06T13:29:52.404Z,11.05
2023-03-06T13:32:30.037Z,12.35
2023-03-06T13:34:56.709Z,11.70
2023-03-06T13:37:48.476Z,10.43
2023-03-06T13:40:34.432Z,10.13
2023-03-06T13:43:21.786Z,9.77
2023-03-06T13:45:49.968Z,16.60
2023-03-06T13:48:44.402Z,13.25
2023-03-06T13:51:22.852Z,10.60
2023-03-06T13:54:30.293Z,10.95
2023-03-06T13:57:23.029Z,10.27
2023-03-06T14:00:34.305Z,9.73
2023-03-06T14:03:27.086Z,10.02
2023-03-06T14:05:53.867Z,9.40
2023-03-06T14:08:22.680Z,9.52
2023-03-06T14:11:00.597Z,9.15
2023-03-06T14:13:41.877Z,10.38
2023-03-06T14:16:19.844Z,10.00
2023-03-06T14:18:51.129Z,9.68
2023-03-06T14:21:28.018Z,9.18
2023-03-06T14:24:00.552Z,10.38
2023-03-06T14:26:31.706Z,10.23
2023-03-06T14:28:59.683Z,9.00
2023-03-06T14:31:30.129Z,9.95
2023-03-06T14:33:59.980Z,10.43
2023-03-06T14:36:33.808Z,9.18
2023-03-06T14:39:02.979Z,9.40
2023-03-06T14:41:31.545Z,9.23
2023-03-06T14:44:08.727Z,9.80
2023-03-06T14:46:35.910Z,9.25
2023-03-06T14:49:07.318Z,9.60
2023-03-06T14:51:40.663Z,8.85
2023-03-06T14:54:14.091Z,8.80
2023-03-06T14:56:42.134Z,9.70
2023-03-06T14:59:13.753Z,8.10
2023-03-06T15:01:42.145Z,7.85
2023-03-06T15:04:19.822Z,8.65
2023-03-06T15:06:46.691Z,7.60
2023-03-06T15:09:17.069Z,8.20
2023-03-06T15:11:55.785Z,8.40
2023-03-06T15:14:30.326Z,7.65
2023-03-06T15:17:14.278Z,8.07
2023-03-06T15:19:42.494Z,8.40
2023-03-06T15:22:25.364Z,8.35
2023-03-06T15:24:52.302Z,9.40
2023-03-06T15:27:26.735Z,8.88
2023-03-06T15:29:53.398Z,8.70
2023-03-06T15:32:30.351Z,9.73
2023-03-06T15:35:30.622Z,10.20
2023-03-06T15:37:58.219Z,10.27
2023-03-06T15:40:26.174Z,10.90
2023-03-06T15:42:53.372Z,10.82
2023-03-06T15:45:22.161Z,10.35
2023-03-06T15:47:51.021Z,10.93
2023-03-06T15:50:19.651Z,10.80
2023-03-06T15:52:48.770Z,10.98
2023-03-06T15:55:18.248Z,10.43
2023-03-06T15:57:49.692Z,10.10
2023-03-06T16:00:27.561Z,11.40
2023-03-06T16:02:55.046Z,9.90
2023-03-06T16:05:22.479Z,9.80
2023-03-06T16:07:50.677Z,9.63
2023-03-06T16:10:19.227Z,9.02
2023-03-06T16:12:49.301Z,10.02
2023-03-06T16:15:18.979Z,10.20
2023-03-06T16:17:46.131Z,10.65
2023-03-06T16:20:17.841Z,10.02
2023-03-06T16:22:45.261Z,10.00
2023-03-06T16:25:13.741Z,9.77
2023-03-06T16:27:40.447Z,10.70
2023-03-06T16:30:11.632Z,10.20
2023-03-06T16:32:38.246Z,9.30
2023-03-06T16:35:05.393Z,9.20
2023-03-06T16:37:32.169Z,9.00
2023-03-06T16:39:59.114Z,9.50
2023-03-06T16:42:27.504Z,9.27
2023-03-06T16:44:54.250Z,9.80
2023-03-06T16:47:20.920Z,11.23
2023-03-06T16:49:47.508Z,10.75
2023-03-06T16:52:14.443Z,10.07
2023-03-06T16:54:42.399Z,12.13
2023-03-06T16:57:13.913Z,11.95
2023-03-06T16:59:42.364Z,12.65
2023-03-06T17:02:09.800Z,11.75
2023-03-06T17:04:36.630Z,10.35
2023-03-06T17:07:03.691Z,11.52
2023-03-06T17:09:30.941Z,11.40
2023-03-06T17:11:57.630Z,10.30
2023-03-06T17:14:24.161Z,11.45
2023-03-06T17:16:53.773Z,10.52
2023-03-06T17:19:20.901Z,10.05
2023-03-06T17:21:49.951Z,10.80
2023-03-06T17:24:16.488Z,12.70
2023-03-06T17:26:43.070Z,11.20
2023-03-06T17:29:09.592Z,10.52
2023-03-06T17:31:36.188Z,11.43
2023-03-06T17:34:04.042Z,11.25
2023-03-06T17:36:31.700Z,11.20
2023-03-06T17:38:59.863Z,10.57
2023-03-06T17:41:26.806Z,11.25
2023-03-06T17:43:55.957Z,11.07
2023-03-06T17:46:22.764Z,11.88
2023-03-06T17:48:49.722Z,12.13
2023-03-06T17:51:18.126Z,13.38
2023-03-06T17:53:44.854Z,14.30
2023-03-06T17:56:13.836Z,13.75
2023-03-06T17:58:40.512Z,11.77
2023-03-06T18:01:11.268Z,11.85
2023-03-06T18:03:38.720Z,11.98
2023-03-06T18:06:05.996Z,12.40
2023-03-06T18:08:33.955Z,12.30
2023-03-06T18:11:01.222Z,12.02
2023-03-06T18:13:27.836Z,13.30
2023-03-06T18:15:54.405Z,12.70
2023-03-06T18:18:21.124Z,12.45
2023-03-06T18:20:47.899Z,11.82
2023-03-06T18:23:14.492Z,13.65
2023-03-06T18:25:42.430Z,11.98
2023-03-06T18:28:09.179Z,12.60
2023-03-06T18:30:36.092Z,12.57
2023-03-06T18:33:02.834Z,13.93
2023-03-06T18:35:29.411Z,14.13
2023-03-06T18:37:56.433Z,21.58
2023-03-06T18:40:24.793Z,23.67
2023-03-06T18:42:53.191Z,20.67
2023-03-06T18:45:20.192Z,21.23
2023-03-06T18:47:46.967Z,19.63
2023-03-06T18:50:13.480Z,18.50
2023-03-06T18:52:40.069Z,14.30
2023-03-06T18:55:07.094Z,15.55
2023-03-06T18:57:33.771Z,16.63
2023-03-06T19:00:01.955Z,16.20
2023-03-06T19:02:28.910Z,16.58
2023-03-06T19:04:55.439Z,16.63
2023-03-06T19:07:22.469Z,12.88
2023-03-06T19:09:49.068Z,13.57
2023-03-06T19:12:16.202Z,13.50
2023-03-06T19:14:43.022Z,14.25
2023-03-06T19:17:11.187Z,13.82
2023-03-06T19:19:39.305Z,12.68
2023-03-06T19:22:05.995Z,13.77
2023-03-06T19:24:32.573Z,11.57
2023-03-06T19:26:59.244Z,13.35
2023-03-06T19:29:25.878Z,12.52
2023-03-06T19:31:52.658Z,11.57
2023-03-06T19:34:20.543Z,11.45
2023-03-06T19:36:49.943Z,11.82
2023-03-06T19:39:16.510Z,13.25
2023-03-06T19:41:43.147Z,12.48
2023-03-06T19:44:09.668Z,12.55
2023-03-06T19:46:36.367Z,11.50
2023-03-06T19:49:04.427Z,12.23
2023-03-06T19:51:32.577Z,11.90
2023-03-06T19:53:59.105Z,16.50
2023-03-06T19:56:30.287Z,14.85
2023-03-06T19:58:57.421Z,14.07
2023-03-06T20:01:26.290Z,13.10
2023-03-06T20:03:54.342Z,13.63
2023-03-06T20:06:20.846Z,13.48
2023-03-06T20:08:48.935Z,14.05
2023-03-06T20:11:17.679Z,14.43
2023-03-06T20:13:47.498Z,14.13
2023-03-06T20:16:14.373Z,13.57
2023-03-06T20:18:40.923Z,13.93
2023-03-06T20:21:07.724Z,11.57
2023-03-06T20:23:35.046Z,12.35
2023-03-06T20:26:04.593Z,11.18
2023-03-06T20:28:31.216Z,9.32
2023-03-06T20:30:58.285Z,11.15
2023-03-06T20:33:24.915Z,12.90
2023-03-06T20:35:51.446Z,13.50
2023-03-06T20:38:19.895Z,12.50
2023-03-06T20:40:48.266Z,12.07
2023-03-06T20:43:16.181Z,10.70
2023-03-06T20:45:42.756Z,11.73
2023-03-06T20:48:09.290Z,11.18
2023-03-06T20:50:35.816Z,11.48
2023-03-06T20:53:02.345Z,12.23
2023-03-06T20:55:28.899Z,12.45
2023-03-06T20:57:55.393Z,11.23
2023-03-06T21:00:23.253Z,10.57
2023-03-06T21:02:49.792Z,12.55
2023-03-06T21:05:16.550Z,10.32
2023-03-06T21:07:43.140Z,10.55
2023-03-06T21:10:10.501Z,11.75
2023-03-06T21:12:36.998Z,11.07
2023-03-06T21:15:04.246Z,10.80
2023-03-06T21:17:32.157Z,11.50
2023-03-06T21:19:59.155Z,20.35
2023-03-06T21:22:25.678Z,22.58
2023-03-06T21:24:52.269Z,17.13
2023-03-06T21:27:18.887Z,17.33
2023-03-06T21:29:45.444Z,11.73
2023-03-06T21:32:11.984Z,11.00
2023-03-06T21:34:39.854Z,9.60
2023-03-06T21:37:06.382Z,10.15
2023-03-06T21:39:32.940Z,9.85
2023-03-06T21:41:59.465Z,9.63
2023-03-06T21:44:26.071Z,11.13
2023-03-06T21:46:52.573Z,11.57
2023-03-06T21:49:19.480Z,10.60
2023-03-06T21:51:47.638Z,10.65
2023-03-06T21:54:14.159Z,10.68
2023-03-06T21:56:40.704Z,12.48
2023-03-06T21:59:07.233Z,10.98
2023-03-06T22:01:33.973Z,11.57
2023-03-06T22:04:00.651Z,14.30
2023-03-06T22:06:29.055Z,11.98
2023-03-06T22:08:58.317Z,10.48
2023-03-06T22:11:26.309Z,11.02
2023-03-06T22:13:52.867Z,10.07
2023-03-06T22:16:19.956Z,9.82
2023-03-06T22:18:47.489Z,11.38
2023-03-06T22:21:16.224Z,11.23
2023-03-06T22:23:43.232Z,10.25
2023-03-06T22:26:12.510Z,9.88
2023-03-06T22:28:39.617Z,10.38
2023-03-06T22:31:08.152Z,10.10
2023-03-06T22:33:35.187Z,8.93
2023-03-06T22:36:02.366Z,10.38
2023-03-06T22:38:28.902Z,10.80
2023-03-06T22:40:56.405Z,10.45
2023-03-06T22:43:24.294Z,10.38
2023-03-06T22:45:50.803Z,10.63
2023-03-06T22:48:17.335Z,10.27
2023-03-06T22:50:44.184Z,10.32
2023-03-06T22:53:10.998Z,9.55
2023-03-06T22:55:37.514Z,11.45
2023-03-06T22:58:04.058Z,10.55
2023-03-06T23:00:31.950Z,10.43
2023-03-06T23:02:58.452Z,11.52
2023-03-06T23:05:29.159Z,11.10
2023-03-06T23:07:56.108Z,10.63
2023-03-06T23:10:22.616Z,10.10
2023-03-06T23:13:07.835Z,9.55
2023-03-06T23:15:54.203Z,10.05
2023-03-06T23:18:39.819Z,10.73
2023-03-06T23:21:25.407Z,10.27
2023-03-06T23:24:10.720Z,10.73
2023-03-06T23:26:37.324Z,10.13
2023-03-06T23:29:03.880Z,10.20
2023-03-06T23:31:31.871Z,11.10
2023-03-06T23:34:00.386Z,10.52
2023-03-06T23:36:28.174Z,10.25
2023-03-06T23:38:54.932Z,10.43
2023-03-06T23:41:22.893Z,10.02
2023-03-06T23:43:50.710Z,10.75
2023-03-06T23:46:20.375Z,10.10
2023-03-06T23:48:48.341Z,11.07
2023-03-06T23:51:17.392Z,9.77
2023-03-06T23:53:45.064Z,9.57
2023-03-06T23:56:12.624Z,9.75
2023-03-06T23:58:39.825Z,8.45
